Terminal Aerodrome Forecast
Issued by NWS Grand Forks, ND

Home | Current Version | Previous Version | Graphics & Text | Print | Product List | Glossary On
Versions: 1 2 3 4 5 6 7 8 9 10 11 12 13 14 15
000
FTUS43 KFGF 231128
TAFGFK
TAF
KGFK 231128Z 2312/2412 35010KT P6SM SCT015
      TEMPO 2312/2315 BKN012
     FM231500 01008KT P6SM SCT040
     FM232000 VRB06KT P6SM FEW120=

USA.gov is the U.S. government's official web portal to all federal, state and local government web resources and services.